Time;durP1;ratioP1;P1;durP2;ratioP2;P2;SDS_P1;SDS_P2;PMS_P1;PMS_P2;Temp;Humidity;BMP_temperature;BMP_pressure;BME280_temperature;BME280_humidity;BME280_pressure;Samples;Min_cycle;Max_cycle;Signal;HPM_P1;HPM_P2
2024/03/08 00:01:14;;;;;;;36.87;20.03;;;;;;;-1.56;100.00;101784.50;5034900;28;20577;-73
2024/03/08 00:03:40;;;;;;;41.30;21.40;;;;;;;-1.55;100.00;101778.34;5041251;28;20230;-73
2024/03/08 00:06:08;;;;;;;34.87;19.03;;;;;;;-1.56;100.00;101781.94;5035316;28;20812;-74
2024/03/08 00:08:34;;;;;;;38.73;19.47;;;;;;;-1.58;100.00;101776.19;5030100;28;21530;-71
2024/03/08 00:11:01;;;;;;;38.97;19.83;;;;;;;-1.60;100.00;101777.41;5037509;28;20466;-73
2024/03/08 00:13:28;;;;;;;39.77;18.97;;;;;;;-1.65;100.00;101770.28;5039164;28;20707;-72
2024/03/08 00:15:57;;;;;;;37.00;18.83;;;;;;;-1.62;100.00;101767.25;5035090;28;20223;-72
2024/03/08 00:18:23;;;;;;;38.63;20.47;;;;;;;-1.72;100.00;101768.78;5033886;28;20461;-74
2024/03/08 00:20:50;;;;;;;38.77;19.60;;;;;;;-1.76;100.00;101760.63;5035567;28;20224;-73
2024/03/08 00:23:18;;;;;;;35.73;18.17;;;;;;;-1.72;100.00;101766.19;5033286;28;20199;-73
2024/03/08 00:25:44;;;;;;;33.30;19.00;;;;;;;-1.76;100.00;101762.44;5033792;28;20226;-73
2024/03/08 00:28:13;;;;;;;30.97;18.53;;;;;;;-1.80;100.00;101759.50;5038351;28;20569;-74
2024/03/08 00:30:39;;;;;;;35.63;20.27;;;;;;;-1.85;100.00;101764.53;5037969;28;20456;-74
2024/03/08 00:33:06;;;;;;;36.40;18.43;;;;;;;-1.86;100.00;101764.75;5037665;28;20523;-73
2024/03/08 00:35:32;;;;;;;33.23;18.97;;;;;;;-1.95;100.00;101761.66;5040353;28;20507;-73
2024/03/08 00:37:58;;;;;;;33.87;18.80;;;;;;;-2.03;100.00;101763.72;5031663;28;20196;-73
2024/03/08 00:40:26;;;;;;;41.97;21.80;;;;;;;-2.09;100.00;101756.78;5038781;28;20486;-72
2024/03/08 00:42:53;;;;;;;37.57;19.13;;;;;;;-2.16;100.00;101751.72;5040541;28;20468;-73
2024/03/08 00:45:19;;;;;;;34.90;18.33;;;;;;;-2.19;100.00;101754.69;5035451;28;20631;-73
2024/03/08 00:47:45;;;;;;;36.43;19.03;;;;;;;-2.17;100.00;101749.31;5034600;28;20457;-74
2024/03/08 00:50:12;;;;;;;39.90;19.07;;;;;;;-2.25;100.00;101749.59;5040785;28;20214;-73
2024/03/08 00:52:39;;;;;;;33.80;18.23;;;;;;;-2.26;100.00;101750.59;5034182;28;20457;-73
2024/03/08 00:55:06;;;;;;;34.27;18.47;;;;;;;-2.27;100.00;101747.22;5038053;28;20514;-73
2024/03/08 00:57:33;;;;;;;38.33;20.00;;;;;;;-2.26;100.00;101741.06;5036858;28;20491;-73
2024/03/08 00:59:59;;;;;;;38.37;18.73;;;;;;;-2.30;100.00;101739.88;5036154;28;20463;-73
2024/03/08 01:02:25;;;;;;;52.93;25.57;;;;;;;-2.34;100.00;101749.06;5035782;28;20563;-73
2024/03/08 01:04:51;;;;;;;64.90;31.10;;;;;;;-2.37;100.00;101754.69;5034698;28;20751;-73
2024/03/08 01:07:18;;;;;;;44.83;23.23;;;;;;;-2.34;100.00;101743.13;5033750;28;20463;-73
2024/03/08 01:09:44;;;;;;;43.23;19.67;;;;;;;-2.39;100.00;101741.16;5042792;28;20461;-74
2024/03/08 01:12:10;;;;;;;40.23;20.87;;;;;;;-2.39;100.00;101751.50;5036885;28;20469;-73
2024/03/08 01:14:38;;;;;;;40.37;21.00;;;;;;;-2.44;100.00;101735.81;5035547;28;20238;-73
2024/03/08 01:17:05;;;;;;;43.43;20.57;;;;;;;-2.43;100.00;101744.38;5032449;28;20480;-73
2024/03/08 01:19:32;;;;;;;43.63;21.07;;;;;;;-2.42;100.00;101733.84;5036162;28;20473;-73
2024/03/08 01:21:59;;;;;;;40.00;20.60;;;;;;;-2.39;100.00;101725.63;5037389;28;20479;-73
2024/03/08 01:24:25;;;;;;;41.87;21.10;;;;;;;-2.37;100.00;101734.00;5032643;28;20870;-73
2024/03/08 01:26:52;;;;;;;39.67;19.80;;;;;;;-2.36;100.00;101725.22;5032775;28;20473;-73
2024/03/08 01:29:18;;;;;;;37.13;18.17;;;;;;;-2.38;100.00;101734.97;5039171;28;20475;-72
2024/03/08 01:31:46;;;;;;;34.57;18.27;;;;;;;-2.38;100.00;101724.63;5038517;28;20480;-73
2024/03/08 01:34:12;;;;;;;40.43;19.50;;;;;;;-2.40;100.00;101721.47;5039458;28;20218;-73
2024/03/08 01:36:40;;;;;;;38.80;18.43;;;;;;;-2.41;100.00;101713.91;5040238;28;20217;-73
2024/03/08 01:39:07;;;;;;;35.80;18.07;;;;;;;-2.40;100.00;101712.91;5036087;28;20489;-73
2024/03/08 01:41:34;;;;;;;39.60;19.73;;;;;;;-2.40;100.00;101715.50;5039013;28;20848;-73
2024/03/08 01:44:01;;;;;;;35.33;18.43;;;;;;;-2.37;100.00;101709.91;5036532;28;20206;-73
2024/03/08 01:46:28;;;;;;;36.27;19.30;;;;;;;-2.38;100.00;101713.50;5039154;28;20552;-73
2024/03/08 01:48:57;;;;;;;39.80;19.20;;;;;;;-2.42;100.00;101707.97;5038449;28;20466;-73
2024/03/08 01:51:23;;;;;;;39.43;18.67;;;;;;;-2.42;100.00;101700.22;5039836;28;20468;-73
2024/03/08 01:53:50;;;;;;;40.10;19.57;;;;;;;-2.46;100.00;101698.25;5038115;28;20461;-73
2024/03/08 01:56:18;;;;;;;35.27;18.43;;;;;;;-2.49;100.00;101696.09;5038500;28;20492;-72
2024/03/08 01:58:44;;;;;;;38.43;18.70;;;;;;;-2.55;100.00;101691.78;5039196;28;20457;-72
2024/03/08 02:01:13;;;;;;;35.23;19.03;;;;;;;-2.61;100.00;101695.19;5039002;28;20857;-72
2024/03/08 02:03:40;;;;;;;35.97;18.63;;;;;;;-2.63;100.00;101689.47;5041467;28;20471;-73
2024/03/08 02:06:10;;;;;;;34.23;19.07;;;;;;;-2.63;100.00;101692.84;5039269;28;20480;-72
2024/03/08 02:08:36;;;;;;;40.47;19.17;;;;;;;-2.65;100.00;101691.47;5031214;28;20458;-73
2024/03/08 02:11:03;;;;;;;35.30;18.43;;;;;;;-2.67;100.00;101693.47;5040732;28;20468;-73
2024/03/08 02:13:29;;;;;;;40.33;20.27;;;;;;;-2.67;100.00;101683.94;5041658;28;20522;-73
2024/03/08 02:15:59;;;;;;;35.43;19.27;;;;;;;-2.63;100.00;101679.13;5037277;28;20472;-73
2024/03/08 02:18:25;;;;;;;42.07;20.57;;;;;;;-2.70;100.00;101679.16;5037410;28;20472;-72
2024/03/08 02:20:54;;;;;;;38.10;19.70;;;;;;;-2.72;100.00;101682.97;5040809;28;20480;-73
2024/03/08 02:23:20;;;;;;;36.03;18.77;;;;;;;-2.74;100.00;101680.63;5038766;28;20476;-73
2024/03/08 02:25:47;;;;;;;42.90;20.13;;;;;;;-2.74;100.00;101672.84;5037768;28;20480;-73
2024/03/08 02:28:14;;;;;;;39.47;20.53;;;;;;;-2.76;100.00;101669.69;5039314;28;20472;-73
2024/03/08 02:30:41;;;;;;;39.80;18.30;;;;;;;-2.72;100.00;101672.63;5043285;28;20903;-73
2024/03/08 02:33:09;;;;;;;36.40;18.10;;;;;;;-2.72;100.00;101676.00;5039386;28;20822;-73
2024/03/08 02:35:36;;;;;;;40.83;19.80;;;;;;;-2.75;100.00;101667.91;5037204;28;20483;-73
2024/03/08 02:38:04;;;;;;;43.00;19.63;;;;;;;-2.76;100.00;101671.50;5037702;28;20472;-73
2024/03/08 02:40:32;;;;;;;38.10;20.10;;;;;;;-2.77;100.00;101669.88;5041327;28;20466;-72
2024/03/08 02:42:58;;;;;;;41.37;19.40;;;;;;;-2.78;100.00;101676.06;5043855;28;20476;-74
2024/03/08 02:45:24;;;;;;;40.40;19.97;;;;;;;-2.83;100.00;101673.31;5031908;28;20496;-73
2024/03/08 02:47:50;;;;;;;42.83;19.60;;;;;;;-2.84;100.00;101672.53;5037217;28;20463;-73
2024/03/08 02:50:17;;;;;;;42.67;20.40;;;;;;;-2.85;100.00;101670.16;5036619;28;20472;-72
2024/03/08 02:52:46;;;;;;;42.80;20.63;;;;;;;-2.88;100.00;101666.22;5036884;28;20467;-73
2024/03/08 02:55:16;;;;;;;42.37;19.90;;;;;;;-2.86;100.00;101673.75;5038009;28;20485;-73
2024/03/08 02:57:43;;;;;;;45.53;20.07;;;;;;;-2.89;100.00;101669.00;5038807;28;20529;-73
2024/03/08 03:00:10;;;;;;;43.50;20.17;;;;;;;-2.90;100.00;101665.59;5053880;28;20453;-73
2024/03/08 03:02:37;;;;;;;41.03;20.00;;;;;;;-2.89;100.00;101662.03;5035081;28;20478;-73
2024/03/08 03:05:05;;;;;;;35.00;18.80;;;;;;;-2.94;100.00;101666.25;5037992;28;20484;-73
2024/03/08 03:07:33;;;;;;;37.70;20.23;;;;;;;-2.98;100.00;101660.72;5035307;28;20514;-73
2024/03/08 03:10:00;;;;;;;43.07;21.70;;;;;;;-3.05;100.00;101656.59;5041125;28;20543;-73
2024/03/08 03:12:27;;;;;;;48.37;22.70;;;;;;;-3.07;100.00;101656.81;5029972;28;20559;-73
2024/03/08 03:14:54;;;;;;;45.57;22.37;;;;;;;-3.03;100.00;101655.38;5037449;28;20938;-73
2024/03/08 03:17:20;;;;;;;47.93;23.57;;;;;;;-3.01;100.00;101655.97;5039363;28;20472;-73
2024/03/08 03:19:47;;;;;;;51.43;23.73;;;;;;;-2.98;100.00;101650.38;5037593;28;20474;-73
2024/03/08 03:22:13;;;;;;;51.27;24.43;;;;;;;-2.94;100.00;101648.16;5039843;28;20571;-72
2024/03/08 03:24:40;;;;;;;49.57;23.70;;;;;;;-2.88;100.00;101649.91;5038811;28;20496;-72
2024/03/08 03:27:10;;;;;;;48.40;23.33;;;;;;;-2.83;100.00;101644.88;5037790;28;20980;-73
2024/03/08 03:29:38;;;;;;;56.83;24.67;;;;;;;-2.75;100.00;101648.00;5038424;28;20858;-73
2024/03/08 03:32:04;;;;;;;50.63;24.93;;;;;;;-2.70;100.00;101650.72;5038918;28;20464;-73
2024/03/08 03:34:31;;;;;;;53.30;24.77;;;;;;;-2.61;100.00;101648.66;5037058;28;20552;-73
2024/03/08 03:36:57;;;;;;;53.93;24.30;;;;;;;-2.54;100.00;101642.44;5040299;28;20213;-73
2024/03/08 03:39:24;;;;;;;57.77;26.13;;;;;;;-2.46;100.00;101659.47;5038505;28;20472;-73
2024/03/08 03:41:52;;;;;;;56.00;25.17;;;;;;;-2.42;100.00;101648.50;5036531;28;20269;-73
2024/03/08 03:44:18;;;;;;;49.70;23.87;;;;;;;-2.34;100.00;101652.59;5037555;28;20493;-73
2024/03/08 03:46:46;;;;;;;57.63;26.40;;;;;;;-2.28;100.00;101651.75;5063397;28;20463;-73
2024/03/08 03:49:12;;;;;;;52.03;25.27;;;;;;;-2.23;100.00;101660.41;5031140;28;20466;-72
2024/03/08 03:51:39;;;;;;;55.13;26.43;;;;;;;-2.19;100.00;101655.63;5036168;28;20472;-73
2024/03/08 03:54:05;;;;;;;56.73;26.30;;;;;;;-2.15;100.00;101657.56;5040143;28;20822;-73
2024/03/08 03:56:31;;;;;;;59.83;27.23;;;;;;;-2.13;100.00;101649.59;5034116;28;20751;-73
2024/03/08 03:58:58;;;;;;;51.43;25.13;;;;;;;-2.11;100.00;101644.97;5040343;28;20241;-72
2024/03/08 04:01:24;;;;;;;63.70;27.47;;;;;;;-2.08;100.00;101654.91;5036606;28;20848;-73
2024/03/08 04:03:52;;;;;;;55.77;25.77;;;;;;;-2.08;100.00;101653.09;5036273;28;20203;-73
2024/03/08 04:06:18;;;;;;;53.80;26.40;;;;;;;-2.07;100.00;101644.31;5038608;28;20613;-73
2024/03/08 04:08:44;;;;;;;58.23;27.30;;;;;;;-2.05;100.00;101646.69;5033564;28;20547;-73
2024/03/08 04:11:11;;;;;;;55.90;25.60;;;;;;;-2.05;100.00;101649.28;5036358;28;20207;-73
2024/03/08 04:13:37;;;;;;;59.83;27.73;;;;;;;-2.05;100.00;101641.53;5037889;28;20194;-73
2024/03/08 04:16:07;;;;;;;58.07;25.67;;;;;;;-2.05;100.00;101646.69;5038247;28;20222;-73
2024/03/08 04:18:35;;;;;;;59.03;26.77;;;;;;;-2.05;100.00;101650.09;5037693;28;20838;-73
2024/03/08 04:21:06;;;;;;;60.93;26.97;;;;;;;-2.01;100.00;101646.06;5032956;28;20527;-72
2024/03/08 04:23:33;;;;;;;59.73;26.33;;;;;;;-2.00;100.00;101646.84;5035785;28;20210;-73
2024/03/08 04:26:00;;;;;;;61.43;26.90;;;;;;;-1.97;100.00;101647.19;5033850;28;20250;-73
2024/03/08 04:28:26;;;;;;;63.53;28.37;;;;;;;-1.96;100.00;101643.63;5040993;28;20230;-73
2024/03/08 04:30:52;;;;;;;56.67;26.83;;;;;;;-1.93;100.00;101644.97;5033111;28;20203;-73
2024/03/08 04:33:19;;;;;;;65.23;27.03;;;;;;;-1.93;100.00;101639.81;5035269;28;20195;-73
2024/03/08 04:35:46;;;;;;;59.67;25.10;;;;;;;-1.92;100.00;101646.56;5034173;28;20735;-73
2024/03/08 04:38:15;;;;;;;58.00;26.90;;;;;;;-1.91;100.00;101640.38;5034284;28;20207;-73
2024/03/08 04:40:41;;;;;;;57.27;24.83;;;;;;;-1.93;100.00;101642.41;5036449;28;20585;-73
2024/03/08 04:43:08;;;;;;;60.87;27.20;;;;;;;-1.91;100.00;101636.00;5039751;28;20229;-73
2024/03/08 04:45:35;;;;;;;62.73;28.13;;;;;;;-1.90;100.00;101637.56;5034995;28;20219;-73
2024/03/08 04:48:01;;;;;;;62.77;27.73;;;;;;;-1.88;100.00;101638.13;5035828;28;20711;-73
2024/03/08 04:50:28;;;;;;;57.43;27.07;;;;;;;-1.88;100.00;101622.59;5032023;28;20199;-73
2024/03/08 04:52:55;;;;;;;58.63;26.60;;;;;;;-1.87;100.00;101624.16;5036112;28;20207;-73
2024/03/08 04:55:22;;;;;;;66.33;28.93;;;;;;;-1.86;100.00;101627.56;5037348;28;20724;-73
2024/03/08 04:57:49;;;;;;;57.93;27.97;;;;;;;-1.85;100.00;101632.53;5034623;28;20640;-73
2024/03/08 05:00:17;;;;;;;63.93;28.17;;;;;;;-1.85;100.00;101632.53;5032321;28;20810;-73
2024/03/08 05:02:44;;;;;;;66.07;26.97;;;;;;;-1.85;100.00;101635.13;5033950;28;21171;-73
2024/03/08 05:05:12;;;;;;;73.83;28.80;;;;;;;-1.84;100.00;101634.09;5039669;28;20228;-73
2024/03/08 05:07:39;;;;;;;60.70;27.30;;;;;;;-1.84;100.00;101636.69;5040155;28;20608;-73
2024/03/08 05:10:06;;;;;;;61.70;27.53;;;;;;;-1.85;100.00;101629.13;5042545;28;20199;-73
2024/03/08 05:12:34;;;;;;;64.60;29.67;;;;;;;-1.86;100.00;101630.16;5038823;28;20198;-72
2024/03/08 05:15:01;;;;;;;59.93;28.20;;;;;;;-1.88;100.00;101640.72;5040290;28;20230;-73
2024/03/08 05:17:27;;;;;;;58.43;28.27;;;;;;;-1.90;100.00;101626.41;5038767;28;20207;-73
2024/03/08 05:19:54;;;;;;;62.13;28.40;;;;;;;-1.93;100.00;101622.47;5040674;28;20207;-73
2024/03/08 05:22:20;;;;;;;63.33;27.03;;;;;;;-1.95;100.00;101618.50;5041163;28;20220;-73
2024/03/08 05:24:46;;;;;;;54.97;25.53;;;;;;;-1.96;100.00;101625.50;5032325;28;20214;-73
2024/03/08 05:27:13;;;;;;;60.40;27.10;;;;;;;-1.99;100.00;101625.91;5038282;28;20553;-74
2024/03/08 05:29:40;;;;;;;55.40;25.43;;;;;;;-1.99;100.00;101623.34;5023957;28;20430;-73
2024/03/08 05:32:07;;;;;;;58.23;27.37;;;;;;;-2.00;100.00;101618.38;5026679;28;20665;-73
2024/03/08 05:34:34;;;;;;;56.20;26.33;;;;;;;-2.01;100.00;101624.56;5037746;28;20258;-73
2024/03/08 05:37:01;;;;;;;61.33;28.50;;;;;;;-2.02;100.00;101620.41;5024153;28;20223;-72
2024/03/08 05:39:27;;;;;;;62.53;28.53;;;;;;;-2.02;100.00;101621.16;5038873;28;20557;-73
2024/03/08 05:41:55;;;;;;;55.40;27.13;;;;;;;-2.02;100.00;101616.00;5046734;28;20224;-73
2024/03/08 05:44:21;;;;;;;62.23;27.97;;;;;;;-2.01;100.00;101619.38;5042023;28;20284;-73
2024/03/08 05:46:50;;;;;;;68.23;29.10;;;;;;;-2.01;100.00;101609.84;5036759;28;20218;-73
2024/03/08 05:49:16;;;;;;;67.57;28.97;;;;;;;-2.00;100.00;101610.59;5035539;28;20856;-73
2024/03/08 05:51:43;;;;;;;56.37;28.10;;;;;;;-1.97;100.00;101615.34;5039064;28;20206;-72
2024/03/08 05:54:11;;;;;;;63.47;27.73;;;;;;;-1.93;100.00;101612.09;5042873;28;20241;-72
2024/03/08 05:56:38;;;;;;;59.53;27.63;;;;;;;-1.89;100.00;101615.84;5034817;28;20336;-73
2024/03/08 05:59:04;;;;;;;71.67;28.30;;;;;;;-1.85;100.00;101611.81;5035251;28;20200;-72
2024/03/08 06:01:32;;;;;;;62.07;27.53;;;;;;;-1.82;100.00;101608.00;5029949;28;20219;-73
2024/03/08 06:04:00;;;;;;;65.93;29.60;;;;;;;-1.79;100.00;101618.72;5031715;28;20305;-73
2024/03/08 06:06:27;;;;;;;70.80;30.87;;;;;;;-1.75;100.00;101614.69;5032147;28;20226;-73
2024/03/08 06:08:56;;;;;;;62.57;29.40;;;;;;;-1.71;100.00;101615.78;5038107;28;20207;-73
2024/03/08 06:11:22;;;;;;;72.50;30.47;;;;;;;-1.67;100.00;101621.34;5030728;28;20310;-72
2024/03/08 06:13:49;;;;;;;76.77;34.33;;;;;;;-1.63;100.00;101617.28;5036155;28;20196;-72
2024/03/08 06:16:16;;;;;;;64.70;30.60;;;;;;;-1.62;100.00;101611.13;5033581;28;20556;-73
2024/03/08 06:18:42;;;;;;;67.10;32.60;;;;;;;-1.58;100.00;101615.63;5030826;28;20210;-72
2024/03/08 06:21:11;;;;;;;68.63;30.57;;;;;;;-1.55;100.00;101622.16;5034406;28;20191;-73
2024/03/08 06:23:38;;;;;;;63.40;30.80;;;;;;;-1.54;100.00;101616.78;5030702;28;20592;-73
2024/03/08 06:26:04;;;;;;;67.43;30.47;;;;;;;-1.52;100.00;101617.34;5036484;28;20745;-72
2024/03/08 06:28:32;;;;;;;66.43;29.70;;;;;;;-1.48;100.00;101620.28;5035068;28;20219;-73
2024/03/08 06:30:58;;;;;;;67.80;30.60;;;;;;;-1.48;100.00;101624.44;5036853;28;20195;-73
2024/03/08 06:33:26;;;;;;;69.40;30.57;;;;;;;-1.44;100.00;101613.66;5037948;28;20274;-73
2024/03/08 06:35:52;;;;;;;69.13;30.67;;;;;;;-1.41;100.00;101623.56;5042978;28;20227;-73
2024/03/08 06:38:20;;;;;;;72.30;31.30;;;;;;;-1.38;100.00;101618.75;5046158;28;21010;-72
2024/03/08 06:40:47;;;;;;;63.60;30.23;;;;;;;-1.35;100.00;101614.91;5038875;28;20260;-73
2024/03/08 06:43:15;;;;;;;79.40;32.30;;;;;;;-1.32;100.00;101623.03;5044734;28;21102;-72
2024/03/08 06:45:42;;;;;;;71.00;31.80;;;;;;;-1.29;100.00;101614.81;5036546;28;20661;-73
2024/03/08 06:48:09;;;;;;;73.03;32.97;;;;;;;-1.25;100.00;101617.75;5042277;28;20454;-73
2024/03/08 06:50:36;;;;;;;68.17;32.00;;;;;;;-1.20;100.00;101610.88;5038203;28;20198;-73
2024/03/08 06:53:03;;;;;;;76.30;33.53;;;;;;;-1.16;100.00;101606.84;5036464;28;20278;-73
2024/03/08 06:55:31;;;;;;;78.30;33.93;;;;;;;-1.11;100.00;101604.38;5041618;28;20233;-72
2024/03/08 06:57:57;;;;;;;69.73;31.80;;;;;;;-1.06;100.00;101601.88;5038669;28;20199;-73
2024/03/08 07:00:26;;;;;;;71.93;33.30;;;;;;;-1.00;100.00;101595.81;5043480;28;20287;-72
2024/03/08 07:02:53;;;;;;;77.70;34.93;;;;;;;-0.94;100.00;101597.50;5031351;28;20223;-73
2024/03/08 07:05:20;;;;;;;73.53;32.30;;;;;;;-0.88;100.00;101603.59;5037043;28;20241;-72
2024/03/08 07:07:48;;;;;;;73.27;33.40;;;;;;;-0.84;100.00;101602.91;5038563;28;20253;-74
2024/03/08 07:10:15;;;;;;;69.27;33.53;;;;;;;-0.73;100.00;101618.47;5039543;28;20203;-74
2024/03/08 07:12:43;;;;;;;80.43;34.40;;;;;;;-0.67;100.00;101614.97;5034499;28;20317;-73
2024/03/08 07:15:13;;;;;;;83.00;35.30;;;;;;;-0.62;100.00;101617.69;5039939;28;20230;-73
2024/03/08 07:17:39;;;;;;;79.80;33.60;;;;;;;-0.55;100.00;101612.38;5036987;28;20199;-73
2024/03/08 07:20:07;;;;;;;78.30;34.23;;;;;;;-0.48;100.00;101620.81;5038587;28;21775;-73
2024/03/08 07:22:34;;;;;;;71.93;33.87;;;;;;;-0.41;100.00;101611.91;5037920;28;20285;-74
2024/03/08 07:25:19;;;;;;;81.30;37.03;;;;;;;-0.35;100.00;101616.19;5038293;28;20586;-74
2024/03/08 07:27:47;;;;;;;81.33;36.57;;;;;;;-0.27;100.00;101615.84;5034676;28;20210;-74
2024/03/08 07:30:51;;;;;;;78.37;35.20;;;;;;;-0.18;100.00;101616.25;5037367;28;20222;-74
2024/03/08 07:33:02;;;;;;;72.20;34.30;;;;;;;-0.11;100.00;101611.72;5039952;28;20294;-73
2024/03/08 07:35:28;;;;;;;76.20;33.47;;;;;;;-0.05;100.00;101614.19;5034802;28;20226;-74
2024/03/08 07:37:55;;;;;;;81.70;34.03;;;;;;;0.01;100.00;101618.47;5034289;28;20563;-74
2024/03/08 07:40:21;;;;;;;73.43;34.03;;;;;;;0.08;100.00;101608.75;5038300;28;20199;-74
2024/03/08 07:42:49;;;;;;;75.80;34.23;;;;;;;0.14;100.00;101609.63;5032152;28;20524;-74
2024/03/08 07:45:16;;;;;;;73.67;34.57;;;;;;;0.19;100.00;101613.09;5033355;28;20227;-75
2024/03/08 07:47:42;;;;;;;78.97;35.30;;;;;;;0.27;100.00;101601.56;5037201;28;20207;-74
2024/03/08 07:50:10;;;;;;;74.83;34.70;;;;;;;0.35;100.00;101598.56;5033308;28;20685;-74
2024/03/08 07:52:36;;;;;;;70.30;34.30;;;;;;;0.41;100.00;101600.22;5033333;28;20661;-73
2024/03/08 07:55:03;;;;;;;70.33;33.73;;;;;;;0.47;100.00;101604.53;5036979;28;20228;-73
2024/03/08 07:57:30;;;;;;;67.30;32.97;;;;;;;0.54;100.00;101598.16;5042003;28;20210;-74
2024/03/08 07:59:58;;;;;;;64.90;31.90;;;;;;;0.59;100.00;101597.44;5034332;28;20227;-74
2024/03/08 08:02:24;;;;;;;65.50;32.47;;;;;;;0.67;100.00;101587.44;5033455;28;20545;-72
2024/03/08 08:04:51;;;;;;;65.03;31.87;;;;;;;0.77;100.00;101586.81;5037655;28;20222;-73
2024/03/08 08:07:17;;;;;;;61.67;30.53;;;;;;;0.86;100.00;101590.59;5039185;28;20577;-74
2024/03/08 08:09:43;;;;;;;65.00;30.27;;;;;;;0.93;100.00;101583.41;5039137;28;20226;-73
2024/03/08 08:12:11;;;;;;;58.40;29.43;;;;;;;1.03;100.00;101589.56;5036155;28;20219;-74
2024/03/08 08:14:38;;;;;;;57.73;29.20;;;;;;;1.08;100.00;101592.25;5034760;28;20231;-73
2024/03/08 08:17:08;;;;;;;62.03;28.83;;;;;;;1.15;100.00;101585.06;5039420;28;20679;-74
2024/03/08 08:19:35;;;;;;;54.93;27.67;;;;;;;1.25;100.00;101584.44;5037985;28;20662;-74
2024/03/08 08:22:01;;;;;;;56.50;27.00;;;;;;;1.35;100.00;101577.53;5036355;28;20666;-73
2024/03/08 08:24:28;;;;;;;54.47;26.50;;;;;;;1.46;100.00;101570.66;5034074;28;20730;-74
2024/03/08 08:26:54;;;;;;;58.17;27.23;;;;;;;1.59;100.00;101580.69;5036221;28;22050;-74
2024/03/08 08:29:21;;;;;;;49.13;25.20;;;;;;;1.66;100.00;101579.50;5038544;28;20207;-73
2024/03/08 08:31:49;;;;;;;56.00;26.70;;;;;;;1.75;100.00;101572.03;5040224;28;20214;-74
2024/03/08 08:34:19;;;;;;;42.03;22.77;;;;;;;1.87;100.00;101572.72;5036791;28;20548;-74
2024/03/08 08:36:45;;;;;;;52.13;23.43;;;;;;;1.97;100.00;101572.84;5031695;28;20293;-73
2024/03/08 08:39:13;;;;;;;41.57;22.13;;;;;;;2.07;100.00;101570.34;5034420;28;20207;-72
2024/03/08 08:41:41;;;;;;;41.13;22.33;;;;;;;2.18;100.00;101564.97;5028619;28;20897;-73
2024/03/08 08:44:09;;;;;;;40.03;20.57;;;;;;;2.31;100.00;101561.97;5036312;28;20223;-74
2024/03/08 08:46:37;;;;;;;42.90;20.80;;;;;;;2.47;100.00;101563.69;5044635;28;20233;-74
2024/03/08 08:49:05;;;;;;;40.23;19.87;;;;;;;2.54;100.00;101563.47;5040355;28;20207;-74
2024/03/08 08:51:33;;;;;;;36.13;19.40;;;;;;;2.66;100.00;101564.88;5039491;28;20890;-73
2024/03/08 08:54:00;;;;;;;30.93;17.53;;;;;;;2.78;100.00;101562.09;5041178;28;20207;-73
2024/03/08 08:56:28;;;;;;;33.57;17.50;;;;;;;2.87;100.00;101555.38;5037201;28;20244;-73
2024/03/08 08:58:54;;;;;;;33.73;18.57;;;;;;;2.96;100.00;101551.28;5049066;23;20223;-72
2024/03/08 09:01:21;;;;;;;36.47;18.33;;;;;;;3.07;100.00;101555.50;5035525;28;20211;-72
2024/03/08 09:03:47;;;;;;;32.10;16.93;;;;;;;3.17;100.00;101551.13;5037390;28;20242;-72
2024/03/08 09:06:14;;;;;;;32.83;14.97;;;;;;;3.27;100.00;101548.56;5035539;28;20644;-72
2024/03/08 09:08:41;;;;;;;29.87;15.33;;;;;;;3.38;100.00;101554.66;5033155;28;20225;-72
2024/03/08 09:11:08;;;;;;;30.43;16.23;;;;;;;3.45;100.00;101545.53;5017260;28;20215;-72
2024/03/08 09:13:34;;;;;;;25.97;13.43;;;;;;;3.50;100.00;101540.34;5019073;28;20212;-72
2024/03/08 09:16:01;;;;;;;25.57;13.80;;;;;;;3.61;100.00;101538.53;5015878;28;20290;-72
2024/03/08 09:18:27;;;;;;;22.80;12.70;;;;;;;3.66;100.00;101541.97;4999170;28;20204;-72
2024/03/08 09:20:54;;;;;;;21.60;11.00;;;;;;;3.71;100.00;101531.53;5020282;28;20212;-72
2024/03/08 09:23:21;;;;;;;18.17;10.37;;;;;;;3.75;100.00;101527.38;5017812;28;20235;-72
2024/03/08 09:25:48;;;;;;;19.00;11.03;;;;;;;3.79;100.00;101527.66;5017069;28;20223;-72
2024/03/08 09:28:15;;;;;;;15.97;9.90;;;;;;;3.87;100.00;101524.50;5014359;28;20204;-72
2024/03/08 09:30:42;;;;;;;17.80;10.03;;;;;;;3.94;100.00;101515.38;5018637;28;20216;-72
2024/03/08 09:33:09;;;;;;;19.60;9.87;;;;;;;4.02;100.00;101527.97;5019223;28;20220;-72
2024/03/08 09:35:35;;;;;;;16.00;9.30;;;;;;;4.10;100.00;101524.81;5009533;28;20294;-72
2024/03/08 09:38:03;;;;;;;18.23;9.40;;;;;;;4.19;100.00;101519.91;5017393;28;20216;-72
2024/03/08 09:40:29;;;;;;;16.17;9.77;;;;;;;4.24;100.00;101525.91;5011925;28;20231;-72
2024/03/08 09:42:57;;;;;;;16.77;9.43;;;;;;;4.32;100.00;101517.53;5015854;28;20223;-72
2024/03/08 09:45:25;;;;;;;18.13;9.63;;;;;;;4.42;100.00;101514.94;5013143;28;20204;-72
2024/03/08 09:47:53;;;;;;;18.80;9.60;;;;;;;4.47;100.00;101514.94;5008590;28;20266;-72
2024/03/08 09:50:19;;;;;;;21.97;11.30;;;;;;;4.53;100.00;101511.28;5013586;28;20251;-72
2024/03/08 09:52:48;;;;;;;19.77;10.40;;;;;;;4.61;100.00;101502.88;5018110;28;20219;-72
2024/03/08 09:55:17;;;;;;;17.87;9.80;;;;;;;4.69;100.00;101504.97;5021992;28;20564;-72
2024/03/08 09:58:16;;;;;;;21.87;11.17;;;;;;;4.78;100.00;101500.78;5017970;28;20247;-72
2024/03/08 10:00:34;;;;;;;22.10;10.63;;;;;;;4.88;100.00;101507.81;5020456;28;20762;-72
2024/03/08 10:03:05;;;;;;;16.63;9.60;;;;;;;4.93;100.00;101500.72;5021727;28;20714;-72
2024/03/08 10:05:33;;;;;;;16.13;9.70;;;;;;;5.00;100.00;101500.44;5019560;28;20223;-72
2024/03/08 10:07:59;;;;;;;17.83;10.53;;;;;;;5.07;100.00;101499.13;5022143;28;20196;-71
2024/03/08 10:10:26;;;;;;;19.07;9.73;;;;;;;5.16;100.00;101492.31;5022989;28;20218;-72
2024/03/08 10:12:53;;;;;;;15.17;9.30;;;;;;;5.20;100.00;101495.16;5019100;28;20619;-72
2024/03/08 10:15:20;;;;;;;26.13;10.63;;;;;;;5.28;100.00;101490.16;5019059;28;20589;-72
2024/03/08 10:17:48;;;;;;;17.97;8.73;;;;;;;5.32;100.00;101487.78;5015572;28;20214;-71
2024/03/08 10:20:15;;;;;;;17.57;9.73;;;;;;;5.39;99.03;101478.56;5018257;28;20866;-71
2024/03/08 10:22:43;;;;;;;16.43;9.67;;;;;;;5.43;100.00;101479.63;5016329;28;20214;-71
2024/03/08 10:25:11;;;;;;;15.83;9.27;;;;;;;5.53;100.00;101476.16;5018907;28;20305;-71
2024/03/08 10:27:39;;;;;;;13.47;8.43;;;;;;;5.55;97.38;101474.84;5014502;28;20220;-70
2024/03/08 10:30:08;;;;;;;14.73;8.90;;;;;;;5.62;100.00;101466.69;5014097;28;20258;-71
2024/03/08 10:32:34;;;;;;;17.97;9.27;;;;;;;5.67;100.00;101464.03;5020766;28;20213;-71
2024/03/08 10:35:02;;;;;;;18.40;9.63;;;;;;;5.73;94.86;101462.94;5016051;28;20211;-71
2024/03/08 10:37:33;;;;;;;16.30;9.03;;;;;;;5.78;89.78;101458.47;5018867;28;20232;-71
2024/03/08 10:40:10;;;;;;;15.43;9.20;;;;;;;5.84;81.35;101464.47;5016196;28;20664;-70
2024/03/08 10:42:41;;;;;;;17.47;9.57;;;;;;;5.86;75.50;101450.03;5016427;28;20289;-71
2024/03/08 10:45:16;;;;;;;16.17;8.67;;;;;;;5.90;80.11;101452.94;5018005;28;20232;-71
2024/03/08 10:47:43;;;;;;;18.00;8.57;;;;;;;5.95;93.44;101445.78;5016497;28;20211;-71
2024/03/08 10:50:20;;;;;;;13.73;8.53;;;;;;;6.01;82.83;101446.56;5014870;28;20245;-71
2024/03/08 10:52:49;;;;;;;14.13;9.03;;;;;;;6.06;84.99;101436.78;5018728;28;20254;-71
2024/03/08 10:55:16;;;;;;;16.60;9.07;;;;;;;6.13;85.17;101439.91;5014631;28;20214;-71
2024/03/08 10:57:43;;;;;;;16.53;8.97;;;;;;;6.20;70.40;101437.72;5017384;28;20728;-71
2024/03/08 11:00:13;;;;;;;17.67;8.47;;;;;;;6.25;78.76;101445.56;5013516;28;20576;-71
2024/03/08 11:02:39;;;;;;;15.23;9.17;;;;;;;6.30;84.64;101434.22;5016499;28;20523;-71
2024/03/08 11:05:16;;;;;;;16.60;9.03;;;;;;;6.33;78.10;101429.22;5012384;28;20224;-71